createdAt,value
2023-01-19T00:02:21.165Z,-0.82
2023-01-19T00:06:22.870Z,-0.79
2023-01-19T00:10:24.503Z,-0.75
2023-01-19T00:14:26.058Z,-0.70
2023-01-19T00:18:27.757Z,-0.69
2023-01-19T00:22:29.486Z,-0.69
2023-01-19T00:26:31.102Z,-0.68
2023-01-19T00:30:32.677Z,-0.67
2023-01-19T00:34:39.605Z,-0.70
2023-01-19T00:38:41.327Z,-0.71
2023-01-19T00:42:48.335Z,-0.73
2023-01-19T00:46:49.953Z,-0.68
2023-01-19T00:50:51.515Z,-0.65
2023-01-19T00:54:53.036Z,-0.60
2023-01-19T00:58:54.545Z,-0.56
2023-01-19T01:02:56.237Z,-0.52
2023-01-19T01:06:57.909Z,-0.52
2023-01-19T01:10:59.610Z,-0.51
2023-01-19T01:15:06.283Z,-0.54
2023-01-19T01:19:07.906Z,-0.53
2023-01-19T01:23:09.570Z,-0.54
2023-01-19T01:27:11.865Z,-0.51
2023-01-19T01:31:13.496Z,-0.46
2023-01-19T01:35:15.597Z,-0.30
2023-01-19T01:39:17.176Z,-0.14
2023-01-19T01:43:20.487Z,-0.08
2023-01-19T01:47:34.464Z,-0.07
2023-01-19T01:51:53.604Z,-0.06
2023-01-19T01:55:55.624Z,-0.07
2023-01-19T01:59:58.434Z,-0.08
2023-01-19T02:03:59.896Z,-0.14
2023-01-19T02:08:31.349Z,-0.17
2023-01-19T02:12:51.587Z,-0.21
2023-01-19T02:16:53.266Z,-0.27
2023-01-19T02:21:01.973Z,-0.31
2023-01-19T02:25:05.526Z,-0.33
2023-01-19T02:29:13.312Z,-0.38
2023-01-19T02:33:14.975Z,-0.43
2023-01-19T02:37:18.574Z,-0.50
2023-01-19T02:41:25.378Z,-0.48
2023-01-19T02:45:27.378Z,-0.51
2023-01-19T02:49:30.308Z,-0.55
2023-01-19T02:54:06.305Z,-0.57
2023-01-19T02:58:22.228Z,-0.59
2023-01-19T03:02:41.394Z,-0.59
2023-01-19T03:07:10.210Z,-0.59
2023-01-19T03:11:13.597Z,-0.59
2023-01-19T03:15:27.538Z,-0.58
2023-01-19T03:19:36.324Z,-0.55
2023-01-19T03:23:41.585Z,-0.47
2023-01-19T03:27:46.307Z,-0.36
2023-01-19T03:31:50.606Z,-0.27
2023-01-19T03:35:57.583Z,-0.20
2023-01-19T03:39:59.532Z,-0.14
2023-01-19T03:44:02.582Z,-0.07
2023-01-19T03:48:05.244Z,-0.01
2023-01-19T03:52:06.935Z,0.02
2023-01-19T03:56:19.751Z,0.08
2023-01-19T04:00:21.362Z,0.17
2023-01-19T04:04:22.904Z,0.28
2023-01-19T04:08:24.495Z,0.33
2023-01-19T04:12:26.085Z,0.40
2023-01-19T04:16:27.812Z,0.42
2023-01-19T04:20:29.878Z,0.42
2023-01-19T04:24:31.577Z,0.52
2023-01-19T04:28:34.974Z,0.64
2023-01-19T04:32:36.552Z,0.74
2023-01-19T04:36:38.180Z,0.81
2023-01-19T04:40:39.729Z,0.86
2023-01-19T04:44:41.332Z,0.86
2023-01-19T04:48:42.872Z,0.87
2023-01-19T04:52:44.476Z,0.97
2023-01-19T04:56:46.726Z,1.03
2023-01-19T05:00:48.636Z,1.00
2023-01-19T05:04:50.538Z,1.04
2023-01-19T05:08:52.112Z,1.07
2023-01-19T05:12:53.918Z,1.12
2023-01-19T05:16:55.579Z,1.08
2023-01-19T05:20:57.186Z,1.08
2023-01-19T05:24:58.795Z,1.11
2023-01-19T05:29:00.463Z,1.03
2023-01-19T05:33:02.540Z,0.92
2023-01-19T05:37:04.310Z,0.87
2023-01-19T05:41:05.963Z,0.78
2023-01-19T05:45:08.391Z,0.65
2023-01-19T05:49:10.124Z,0.54
2023-01-19T05:53:11.917Z,0.54
2023-01-19T05:57:14.511Z,0.58
2023-01-19T06:01:26.822Z,0.71
2023-01-19T06:05:28.872Z,0.76
2023-01-19T06:09:30.528Z,0.79
2023-01-19T06:13:33.657Z,0.88
2023-01-19T06:17:35.529Z,0.97
2023-01-19T06:21:37.072Z,0.98
2023-01-19T06:25:39.225Z,1.06
2023-01-19T06:29:41.146Z,1.08
2023-01-19T06:33:42.815Z,1.09
2023-01-19T06:37:44.376Z,1.11
2023-01-19T06:41:46.067Z,1.14
2023-01-19T06:45:48.235Z,1.19
2023-01-19T06:49:49.966Z,1.11
2023-01-19T06:53:51.642Z,1.13
2023-01-19T06:57:59.510Z,1.16
2023-01-19T07:02:01.296Z,1.11
2023-01-19T07:06:22.825Z,1.05
2023-01-19T07:10:24.853Z,1.04
2023-01-19T07:14:31.008Z,1.09
2023-01-19T07:18:33.179Z,1.11
2023-01-19T07:22:34.746Z,1.14
2023-01-19T07:26:37.567Z,1.08
2023-01-19T07:30:39.252Z,1.06
2023-01-19T07:34:40.814Z,1.05
2023-01-19T07:38:42.509Z,1.07
2023-01-19T07:42:49.238Z,1.01
2023-01-19T07:46:51.295Z,1.02
2023-01-19T07:50:53.097Z,1.07
2023-01-19T07:54:55.015Z,1.11
2023-01-19T07:58:58.559Z,1.11
2023-01-19T08:03:05.650Z,1.12
2023-01-19T08:07:07.218Z,1.01
2023-01-19T08:11:09.635Z,1.05
2023-01-19T08:15:11.458Z,0.95
2023-01-19T08:19:13.103Z,0.91
2023-01-19T08:23:15.237Z,0.94
2023-01-19T08:27:16.848Z,0.89
2023-01-19T08:31:22.948Z,0.87
2023-01-19T08:35:26.067Z,0.82
2023-01-19T08:39:27.689Z,0.78
2023-01-19T08:43:29.306Z,0.78
2023-01-19T08:47:30.908Z,0.74
2023-01-19T08:51:32.538Z,0.78
2023-01-19T08:55:36.504Z,0.98
2023-01-19T08:59:38.268Z,1.06
2023-01-19T09:03:39.834Z,1.12
2023-01-19T09:07:41.808Z,1.21
2023-01-19T09:11:44.519Z,1.36
2023-01-19T09:15:46.063Z,1.29
2023-01-19T09:19:47.753Z,1.39
2023-01-19T09:23:49.450Z,1.58
2023-01-19T09:27:51.407Z,1.68
2023-01-19T09:31:53.262Z,1.81
2023-01-19T09:35:55.286Z,1.90
2023-01-19T09:39:57.071Z,2.03
2023-01-19T09:44:00.370Z,2.15
2023-01-19T09:48:05.931Z,2.33
2023-01-19T09:52:14.858Z,2.46
2023-01-19T09:56:20.140Z,2.60
2023-01-19T10:00:24.335Z,2.64
2023-01-19T10:04:42.167Z,2.79
2023-01-19T10:09:08.741Z,2.89
2023-01-19T10:13:22.859Z,3.00
2023-01-19T10:17:43.434Z,2.82
2023-01-19T10:21:46.436Z,2.94
2023-01-19T10:25:48.173Z,3.09
2023-01-19T10:29:50.008Z,3.49
2023-01-19T10:33:52.825Z,3.70
2023-01-19T10:37:56.379Z,4.00
2023-01-19T10:42:02.453Z,4.14
2023-01-19T10:46:17.830Z,4.21
2023-01-19T10:50:31.838Z,4.24
2023-01-19T10:54:36.468Z,4.22
2023-01-19T10:58:38.063Z,4.31
2023-01-19T11:02:50.560Z,4.33
2023-01-19T11:06:52.253Z,4.16
2023-01-19T11:11:04.524Z,3.93
2023-01-19T11:15:15.700Z,3.70
2023-01-19T11:19:30.081Z,3.60
2023-01-19T11:23:56.868Z,3.61
2023-01-19T11:27:58.700Z,3.64
2023-01-19T11:32:11.828Z,3.59
2023-01-19T11:36:17.734Z,3.49
2023-01-19T11:40:19.485Z,3.40
2023-01-19T11:44:31.057Z,3.31
2023-01-19T11:48:42.416Z,3.28
2023-01-19T11:52:51.389Z,3.29
2023-01-19T11:56:55.752Z,3.20
2023-01-19T12:01:22.471Z,3.23
2023-01-19T12:05:30.186Z,3.19
2023-01-19T12:09:42.785Z,3.20
2023-01-19T12:13:47.042Z,3.05
2023-01-19T12:17:53.591Z,2.99
2023-01-19T12:21:56.614Z,2.97
2023-01-19T12:26:16.498Z,2.91
2023-01-19T12:30:23.196Z,2.84
2023-01-19T12:34:31.484Z,2.89
2023-01-19T12:38:39.223Z,2.95
2023-01-19T12:42:46.569Z,3.00
2023-01-19T12:47:03.312Z,3.15
2023-01-19T12:51:05.295Z,3.20
2023-01-19T12:55:22.739Z,3.23
2023-01-19T12:59:26.888Z,3.44
2023-01-19T13:03:29.340Z,3.60
2023-01-19T13:08:07.052Z,3.85
2023-01-19T13:12:14.572Z,3.86
2023-01-19T13:16:19.112Z,3.96
2023-01-19T13:20:43.148Z,3.97
2023-01-19T13:25:22.233Z,4.02
2023-01-19T13:29:36.375Z,3.84
2023-01-19T13:33:52.154Z,3.76
2023-01-19T13:37:54.105Z,3.73
2023-01-19T13:41:59.277Z,3.62
2023-01-19T13:46:01.459Z,3.52
2023-01-19T13:50:03.763Z,3.39
2023-01-19T13:54:06.266Z,3.41
2023-01-19T13:58:21.324Z,3.31
2023-01-19T14:02:22.993Z,3.25
2023-01-19T14:06:35.967Z,3.10
2023-01-19T14:10:38.746Z,2.96
2023-01-19T14:14:41.319Z,2.86
2023-01-19T14:18:43.580Z,2.72
2023-01-19T14:22:46.993Z,2.62
2023-01-19T14:26:51.464Z,2.64
2023-01-19T14:31:00.386Z,2.65
2023-01-19T14:35:04.262Z,2.61
2023-01-19T14:39:14.253Z,2.57
2023-01-19T14:43:16.011Z,2.50
2023-01-19T14:47:34.895Z,2.49
2023-01-19T14:51:36.495Z,2.44
2023-01-19T14:55:45.552Z,2.46
2023-01-19T14:59:49.665Z,2.44
2023-01-19T15:03:51.334Z,2.39
2023-01-19T15:07:54.171Z,2.36
2023-01-19T15:11:55.871Z,2.25
2023-01-19T15:15:58.535Z,2.13
2023-01-19T15:20:00.271Z,2.07
2023-01-19T15:24:01.901Z,2.04
2023-01-19T15:28:11.202Z,2.06
2023-01-19T15:32:14.249Z,2.03
2023-01-19T15:36:19.089Z,2.02
2023-01-19T15:40:23.418Z,1.96
2023-01-19T15:44:25.157Z,1.94
2023-01-19T15:48:26.734Z,1.87
2023-01-19T15:52:28.277Z,1.89
2023-01-19T15:56:31.288Z,1.86
2023-01-19T16:00:34.742Z,1.87
2023-01-19T16:04:36.361Z,1.84
2023-01-19T16:08:38.144Z,1.88
2023-01-19T16:12:40.112Z,1.95
2023-01-19T16:16:43.134Z,1.89
2023-01-19T16:20:44.737Z,1.87
2023-01-19T16:24:46.576Z,1.97
2023-01-19T16:28:48.258Z,1.93
2023-01-19T16:32:49.838Z,1.90
2023-01-19T16:36:52.060Z,1.94
2023-01-19T16:40:53.780Z,1.93
2023-01-19T16:44:55.367Z,1.94
2023-01-19T16:49:02.628Z,1.97
2023-01-19T16:53:04.262Z,2.00
2023-01-19T16:57:05.854Z,2.07
2023-01-19T17:01:13.384Z,2.08
2023-01-19T17:05:18.523Z,2.03
2023-01-19T17:09:20.194Z,2.04
2023-01-19T17:13:22.318Z,2.09
2023-01-19T17:17:23.947Z,2.12
2023-01-19T17:21:26.367Z,2.16
2023-01-19T17:25:28.021Z,2.15
2023-01-19T17:29:29.620Z,2.14
2023-01-19T17:33:31.260Z,2.19
2023-01-19T17:37:34.179Z,2.22
2023-01-19T17:41:36.362Z,2.20
2023-01-19T17:45:38.169Z,2.23
2023-01-19T17:49:39.942Z,2.23
2023-01-19T17:53:42.374Z,2.19
2023-01-19T17:57:43.986Z,2.13
2023-01-19T18:01:46.507Z,2.16
2023-01-19T18:05:55.722Z,2.17
2023-01-19T18:09:59.009Z,2.11
2023-01-19T18:14:02.899Z,2.10
2023-01-19T18:18:04.485Z,2.15
2023-01-19T18:22:09.125Z,2.20
2023-01-19T18:26:15.120Z,2.26
2023-01-19T18:30:17.247Z,2.29
2023-01-19T18:34:19.673Z,2.31
2023-01-19T18:38:22.480Z,2.32
2023-01-19T18:42:25.673Z,2.32
2023-01-19T18:46:27.615Z,2.32
2023-01-19T18:50:29.310Z,2.28
2023-01-19T18:54:30.951Z,2.22
2023-01-19T18:58:36.304Z,2.19
2023-01-19T19:02:38.056Z,2.12
2023-01-19T19:06:39.703Z,2.11
2023-01-19T19:10:42.242Z,2.02
2023-01-19T19:14:43.807Z,2.02
2023-01-19T19:18:45.545Z,2.05
2023-01-19T19:22:47.256Z,2.08
2023-01-19T19:26:48.886Z,2.10
2023-01-19T19:30:52.654Z,2.06
2023-01-19T19:34:56.411Z,2.06
2023-01-19T19:38:59.368Z,2.06
2023-01-19T19:43:01.037Z,2.03
2023-01-19T19:47:02.709Z,2.03
2023-01-19T19:51:17.532Z,2.05
2023-01-19T19:55:20.464Z,2.08
2023-01-19T19:59:22.143Z,2.10
2023-01-19T20:03:28.069Z,2.10
2023-01-19T20:12:31.998Z,2.09
2023-01-19T20:16:34.146Z,2.11
2023-01-19T20:20:35.873Z,2.13
2023-01-19T20:24:37.588Z,2.09
2023-01-19T20:28:40.224Z,2.14
2023-01-19T20:32:41.865Z,2.15
2023-01-19T20:36:46.872Z,2.17
2023-01-19T20:40:48.389Z,2.15
2023-01-19T20:44:50.041Z,2.15
2023-01-19T20:48:53.741Z,2.13
2023-01-19T20:52:55.308Z,2.15
2023-01-19T20:56:57.643Z,2.11
2023-01-19T21:00:59.384Z,2.08
2023-01-19T21:05:00.973Z,2.04
2023-01-19T21:09:03.745Z,2.02
2023-01-19T21:13:05.290Z,1.98
2023-01-19T21:17:06.849Z,1.98
2023-01-19T21:21:17.766Z,2.00
2023-01-19T21:25:26.177Z,2.01
2023-01-19T21:29:27.794Z,2.00
2023-01-19T21:33:31.717Z,1.99
2023-01-19T21:37:33.334Z,1.97
2023-01-19T21:41:35.951Z,1.93
2023-01-19T21:45:38.624Z,1.87
2023-01-19T21:49:40.226Z,1.76
2023-01-19T21:53:42.190Z,1.68
2023-01-19T21:57:43.741Z,1.60
2023-01-19T22:01:46.249Z,1.56
2023-01-19T22:05:47.855Z,1.51
2023-01-19T22:09:49.440Z,1.43
2023-01-19T22:13:51.512Z,1.34
2023-01-19T22:17:53.114Z,1.28
2023-01-19T22:21:54.708Z,1.26
2023-01-19T22:25:59.463Z,1.21
2023-01-19T22:30:01.141Z,1.14
2023-01-19T22:34:02.744Z,1.08
2023-01-19T22:38:04.489Z,1.05
2023-01-19T22:42:06.090Z,0.98
2023-01-19T22:46:08.820Z,0.91
2023-01-19T22:50:10.506Z,0.87
2023-01-19T22:54:12.853Z,0.77
2023-01-19T22:58:14.409Z,0.75
2023-01-19T23:02:16.138Z,0.74
2023-01-19T23:06:25.689Z,0.73
2023-01-19T23:10:27.478Z,0.68
2023-01-19T23:14:29.488Z,0.59
2023-01-19T23:18:31.675Z,0.51
2023-01-19T23:22:33.202Z,0.44
2023-01-19T23:26:41.003Z,0.43
2023-01-19T23:30:42.721Z,0.41
2023-01-19T23:34:44.277Z,0.43
2023-01-19T23:38:51.133Z,0.46
2023-01-19T23:42:54.732Z,0.44
2023-01-19T23:46:57.923Z,0.38
2023-01-19T23:50:59.625Z,0.34
2023-01-19T23:55:01.203Z,0.29
2023-01-19T23:59:06.855Z,0.25
